Time;durP1;ratioP1;P1;durP2;ratioP2;P2;SDS_P1;SDS_P2;PMS_P1;PMS_P2;Temp;Humidity;BMP_temperature;BMP_pressure;BME280_temperature;BME280_humidity;BME280_pressure;Samples;Min_cycle;Max_cycle;Signal;HPM_P1;HPM_P2
2021/12/23 00:00:59;;;;;;;17.83;9.50;;;;;;;4.74;100.00;100273.91;5097608;28;20054;-89
2021/12/23 00:03:26;;;;;;;16.70;8.75;;;;;;;4.79;100.00;100275.59;5097783;28;20049;-89
2021/12/23 00:05:54;;;;;;;15.80;8.43;;;;;;;4.54;100.00;100258.78;5098054;28;20051;-89
2021/12/23 00:08:21;;;;;;;19.58;9.85;;;;;;;4.49;100.00;100234.69;5097082;28;20783;-89
2021/12/23 00:10:48;;;;;;;17.90;9.18;;;;;;;4.69;100.00;100264.53;5097926;28;20055;-88
2021/12/23 00:13:15;;;;;;;18.85;11.05;;;;;;;4.34;100.00;100242.78;5097865;28;20043;-89
2021/12/23 00:18:41;;;;;;;20.27;9.63;;;;;;;4.38;100.00;100229.72;5115168;28;20500;-89
2021/12/23 00:23:56;;;;;;;15.23;7.82;;;;;;;4.54;100.00;100253.59;5095659;28;20056;-89
2021/12/23 00:26:23;;;;;;;14.32;6.90;;;;;;;4.55;100.00;100254.44;5076984;28;20059;-89
2021/12/23 00:28:51;;;;;;;17.30;9.15;;;;;;;4.47;100.00;100240.81;5095613;28;20053;-88
2021/12/23 00:31:18;;;;;;;17.05;8.70;;;;;;;4.61;100.00;100248.28;5096184;28;20047;-88
2021/12/23 00:33:45;;;;;;;16.83;8.18;;;;;;;4.62;100.00;100237.91;5115495;28;20477;-88
2021/12/23 00:36:13;;;;;;;16.30;7.78;;;;;;;4.64;100.00;100240.44;5096598;28;20043;-88
2021/12/23 00:38:50;;;;;;;16.45;8.82;;;;;;;4.53;100.00;100245.84;5090536;28;20047;-88
2021/12/23 00:41:19;;;;;;;16.02;8.85;;;;;;;4.43;100.00;100234.81;5097358;28;20054;-88
2021/12/23 00:43:46;;;;;;;17.52;9.60;;;;;;;4.49;100.00;100236.44;5096962;28;20050;-88
2021/12/23 00:46:13;;;;;;;18.67;9.15;;;;;;;4.47;100.00;100233.03;5095756;28;20052;-88
2021/12/23 00:48:41;;;;;;;14.73;7.75;;;;;;;4.43;100.00;100223.59;5096228;28;20044;-88
2021/12/23 00:51:08;;;;;;;18.50;9.23;;;;;;;4.27;100.00;100221.31;5088668;28;20052;-87
2021/12/23 00:53:40;;;;;;;18.73;9.00;;;;;;;4.11;100.00;100192.25;5093534;28;20056;-88
2021/12/23 00:56:10;;;;;;;15.70;7.63;;;;;;;4.50;100.00;100228.63;5093263;28;20047;-88
2021/12/23 00:58:37;;;;;;;14.85;7.65;;;;;;;4.39;100.00;100217.59;5090577;28;20047;-88
2021/12/23 01:01:05;;;;;;;16.90;8.35;;;;;;;4.40;100.00;100221.06;5096221;28;20052;-87
2021/12/23 01:03:32;;;;;;;18.52;9.07;;;;;;;4.42;100.00;100219.31;5112437;27;20097;-88
2021/12/23 01:06:00;;;;;;;20.17;11.55;;;;;;;4.34;100.00;100211.69;5134989;27;20045;-88
2021/12/23 01:08:27;;;;;;;18.50;9.95;;;;;;;4.41;100.00;100205.50;5102940;28;20053;-88
2021/12/23 01:10:57;;;;;;;17.67;8.93;;;;;;;4.32;100.00;100210.84;5114505;28;20047;-88
2021/12/23 01:13:27;;;;;;;17.77;9.00;;;;;;;4.24;100.00;100199.78;5114626;28;20063;-88
2021/12/23 01:18:29;;;;;;;22.60;11.45;;;;;;;4.31;100.00;100211.75;5113675;28;20138;-88
2021/12/23 01:21:04;;;;;;;16.77;8.52;;;;;;;4.45;100.00;100207.13;5095992;28;20047;-88
2021/12/23 01:23:35;;;;;;;17.05;7.60;;;;;;;4.36;100.00;100186.59;5096166;28;20051;-88
2021/12/23 01:26:02;;;;;;;19.08;10.35;;;;;;;4.06;100.00;100164.75;5096404;28;20048;-88
2021/12/23 01:28:28;;;;;;;15.43;7.45;;;;;;;4.31;100.00;100172.88;5112438;28;20048;-88
2021/12/23 01:30:55;;;;;;;17.35;9.27;;;;;;;4.27;100.00;100159.13;5095852;28;20051;-88
2021/12/23 01:33:23;;;;;;;16.25;8.43;;;;;;;4.40;100.00;100164.88;5130605;27;20710;-88
2021/12/23 01:35:50;;;;;;;15.15;8.20;;;;;;;4.22;100.00;100160.09;5116069;27;20049;-87
2021/12/23 01:38:17;;;;;;;12.43;6.28;;;;;;;4.13;100.00;100159.41;5103492;28;20051;-87
2021/12/23 01:40:46;;;;;;;16.60;8.45;;;;;;;4.31;100.00;100176.31;5095891;28;20059;-88
2021/12/23 01:43:16;;;;;;;18.00;9.27;;;;;;;3.98;100.00;100146.75;5095696;28;20051;-87
2021/12/23 01:45:48;;;;;;;12.95;6.43;;;;;;;4.46;100.00;100177.75;5095954;28;20097;-88
2021/12/23 01:48:18;;;;;;;13.77;6.45;;;;;;;4.31;100.00;100150.38;5095828;28;20135;-88
2021/12/23 01:50:45;;;;;;;15.70;7.18;;;;;;;4.45;100.00;100175.19;5093711;28;20048;-88
2021/12/23 01:53:12;;;;;;;14.68;7.55;;;;;;;4.37;100.00;100154.56;5112408;28;20055;-87
2021/12/23 01:55:42;;;;;;;15.82;8.60;;;;;;;4.26;100.00;100146.19;5129537;27;20047;-87
2021/12/23 01:58:11;;;;;;;15.57;8.10;;;;;;;4.46;100.00;100166.50;5095525;28;20682;-88
2021/12/23 02:00:40;;;;;;;15.82;8.50;;;;;;;4.38;100.00;100151.97;5095486;28;20061;-88
2021/12/23 02:03:07;;;;;;;14.95;7.00;;;;;;;4.34;100.00;100158.09;5096067;28;20428;-88
2021/12/23 02:05:34;;;;;;;16.00;7.97;;;;;;;4.46;100.00;100162.19;5096455;28;20097;-88
2021/12/23 02:08:11;;;;;;;17.73;8.40;;;;;;;4.41;100.00;100150.19;5112835;28;20538;-88
2021/12/23 02:10:40;;;;;;;14.90;7.07;;;;;;;4.51;100.00;100144.75;5096278;28;20111;-88
2021/12/23 02:13:08;;;;;;;13.07;6.50;;;;;;;4.54;100.00;100149.88;5095885;28;20463;-88
2021/12/23 02:15:35;;;;;;;14.88;7.72;;;;;;;4.38;100.00;100133.81;5094977;28;20137;-88
2021/12/23 02:18:02;;;;;;;14.50;7.05;;;;;;;4.43;100.00;100138.06;5094829;28;20413;-88
2021/12/23 02:20:32;;;;;;;12.98;6.57;;;;;;;4.62;100.00;100141.97;5113854;28;20473;-88
2021/12/23 02:23:00;;;;;;;13.23;5.95;;;;;;;4.69;100.00;100146.13;5078593;28;20040;-88
2021/12/23 02:25:28;;;;;;;15.48;6.65;;;;;;;4.69;100.00;100127.97;5095724;28;20044;-88
2021/12/23 02:27:55;;;;;;;15.60;7.72;;;;;;;4.67;100.00;100136.66;5112295;28;20059;-88
2021/12/23 02:30:27;;;;;;;14.45;7.10;;;;;;;4.49;100.00;100114.59;5095108;28;20417;-88
2021/12/23 02:32:55;;;;;;;14.82;7.32;;;;;;;4.71;100.00;100112.34;5095063;28;20055;-87
2021/12/23 02:35:24;;;;;;;14.57;6.80;;;;;;;4.86;100.00;100124.09;5101020;28;20047;-88
2021/12/23 02:37:51;;;;;;;16.65;7.28;;;;;;;4.84;100.00;100115.53;5105811;28;20059;-88
2021/12/23 02:40:34;;;;;;;16.05;6.72;;;;;;;4.83;100.00;100119.00;5094800;28;20043;-88
2021/12/23 02:43:19;;;;;;;12.32;5.63;;;;;;;4.74;100.00;100107.94;5095416;28;20047;-88
2021/12/23 02:45:49;;;;;;;18.02;8.25;;;;;;;4.51;100.00;100118.00;5094545;28;20044;-88
2021/12/23 02:48:19;;;;;;;14.55;8.00;;;;;;;4.32;100.00;100100.28;5094094;28;20112;-88
2021/12/23 02:50:50;;;;;;;18.25;8.40;;;;;;;4.13;100.00;100083.41;5094650;28;20043;-89
2021/12/23 02:53:17;;;;;;;16.95;7.20;;;;;;;4.39;100.00;100077.63;5128360;27;20044;-89
2021/12/23 02:55:44;;;;;;;13.73;6.13;;;;;;;4.20;100.00;100082.41;5094756;28;20059;-88
2021/12/23 02:58:12;;;;;;;20.42;8.60;;;;;;;4.41;100.00;100095.75;5092634;28;20051;-88
2021/12/23 03:00:42;;;;;;;16.85;8.35;;;;;;;4.27;100.00;100083.97;5093949;28;20693;-88
2021/12/23 03:03:09;;;;;;;15.27;6.72;;;;;;;4.23;100.00;100079.72;5094645;28;20412;-89
2021/12/23 03:05:36;;;;;;;17.90;9.40;;;;;;;4.19;100.00;100091.03;5095241;28;20057;-88
2021/12/23 03:08:04;;;;;;;16.30;8.00;;;;;;;4.10;100.00;100086.91;5093049;28;20058;-89
2021/12/23 03:10:31;;;;;;;11.98;5.50;;;;;;;4.34;100.00;100084.69;5095036;28;20064;-89
2021/12/23 03:12:58;;;;;;;13.25;6.35;;;;;;;4.41;100.00;100088.84;5112713;28;20069;-88
2021/12/23 03:15:24;;;;;;;12.80;5.80;;;;;;;4.34;100.00;100093.31;5094482;28;20064;-89
2021/12/23 03:17:51;;;;;;;19.75;10.90;;;;;;;4.16;100.00;100080.72;5094106;28;20370;-89
2021/12/23 03:20:18;;;;;;;17.67;8.52;;;;;;;4.36;100.00;100081.16;5094934;28;20050;-88
2021/12/23 03:22:45;;;;;;;19.17;9.35;;;;;;;4.10;100.00;100081.72;5076765;28;20052;-89
2021/12/23 03:25:11;;;;;;;22.08;11.25;;;;;;;4.21;100.00;100083.25;5074339;28;20054;-89
2021/12/23 03:27:38;;;;;;;17.73;8.68;;;;;;;4.23;100.00;100084.06;5079808;28;20097;-88
2021/12/23 03:30:07;;;;;;;14.00;6.80;;;;;;;4.43;100.00;100065.47;5094138;28;20055;-89
2021/12/23 03:32:33;;;;;;;17.45;8.40;;;;;;;4.47;100.00;100072.28;5094627;28;20686;-88
2021/12/23 03:35:00;;;;;;;16.73;6.55;;;;;;;4.45;100.00;100064.53;5094676;28;20048;-89
2021/12/23 03:37:27;;;;;;;16.35;7.55;;;;;;;4.51;100.00;100074.75;5092854;28;20054;-89
2021/12/23 03:39:54;;;;;;;16.35;7.95;;;;;;;4.40;100.00;100068.97;5094055;28;20448;-89
2021/12/23 03:42:21;;;;;;;15.57;8.07;;;;;;;4.47;100.00;100070.53;5094879;28;20062;-89
2021/12/23 03:44:48;;;;;;;15.35;6.55;;;;;;;4.48;100.00;100050.66;5103338;28;20059;-89
2021/12/23 03:47:15;;;;;;;15.50;7.45;;;;;;;4.54;100.00;100063.47;5093825;28;20122;-89
2021/12/23 03:49:42;;;;;;;17.42;9.00;;;;;;;4.47;100.00;100057.59;5094670;28;20138;-88
2021/12/23 03:52:09;;;;;;;15.95;6.78;;;;;;;4.54;100.00;100059.13;5089977;28;20044;-89
2021/12/23 03:54:36;;;;;;;13.65;7.18;;;;;;;4.65;100.00;100063.22;5073895;28;20058;-89
2021/12/23 03:57:03;;;;;;;13.90;6.90;;;;;;;4.47;100.00;100059.34;5074292;28;20037;-89
2021/12/23 03:59:30;;;;;;;15.68;7.22;;;;;;;4.40;100.00;100057.78;5092801;28;20074;-89
2021/12/23 04:01:56;;;;;;;14.73;7.35;;;;;;;4.48;100.00;100066.19;5098946;28;20472;-89
2021/12/23 04:04:24;;;;;;;14.07;6.57;;;;;;;4.62;100.00;100050.31;5114455;28;20146;-89
2021/12/23 04:06:51;;;;;;;15.02;8.18;;;;;;;4.49;100.00;100053.22;5114543;28;20047;-88
2021/12/23 04:09:18;;;;;;;19.45;8.65;;;;;;;4.37;100.00;100054.38;5092949;28;20130;-89
2021/12/23 04:11:46;;;;;;;15.05;7.10;;;;;;;4.52;100.00;100065.25;5112254;28;20048;-88
2021/12/23 04:14:13;;;;;;;14.38;6.75;;;;;;;4.35;100.00;100052.69;5093951;28;20044;-88
2021/12/23 04:16:39;;;;;;;13.98;6.22;;;;;;;4.55;100.00;100037.53;5111748;28;20048;-89
2021/12/23 04:19:09;;;;;;;13.90;6.18;;;;;;;4.37;100.00;100053.50;5094003;28;20056;-88
2021/12/23 04:21:37;;;;;;;12.25;5.88;;;;;;;4.48;100.00;100056.72;5097847;28;20428;-89
2021/12/23 04:24:06;;;;;;;16.40;7.47;;;;;;;4.30;100.00;100051.94;5114599;28;20057;-88
2021/12/23 04:26:33;;;;;;;14.95;7.47;;;;;;;4.23;100.00;100063.31;5097957;28;20722;-88
2021/12/23 04:29:00;;;;;;;15.05;6.90;;;;;;;4.44;100.00;100049.88;5096592;28;20078;-88
2021/12/23 04:31:27;;;;;;;15.75;7.38;;;;;;;4.51;100.00;100050.59;5101703;27;20046;-89
2021/12/23 04:33:54;;;;;;;16.08;7.30;;;;;;;4.44;100.00;100051.63;5117666;27;20049;-89
2021/12/23 04:36:26;;;;;;;20.45;9.48;;;;;;;4.29;100.00;100047.66;5076816;28;20040;-89
2021/12/23 04:38:53;;;;;;;15.35;6.57;;;;;;;4.59;100.00;100029.69;5092959;28;20058;-89
2021/12/23 04:41:20;;;;;;;17.55;7.40;;;;;;;4.47;100.00;100029.06;5097378;28;20075;-89
2021/12/23 04:43:46;;;;;;;13.07;6.20;;;;;;;4.60;100.00;100023.59;5097363;28;20397;-89
2021/12/23 04:46:13;;;;;;;13.10;6.95;;;;;;;4.65;100.00;100032.94;5114017;28;20043;-89
2021/12/23 04:48:40;;;;;;;16.20;7.25;;;;;;;4.41;100.00;99990.34;5101413;28;20104;-89
2021/12/23 04:51:07;;;;;;;13.50;6.30;;;;;;;4.68;100.00;100035.47;5097375;28;20186;-89
2021/12/23 04:53:34;;;;;;;15.20;7.70;;;;;;;4.73;100.00;100028.44;5100917;28;20051;-89
2021/12/23 04:56:00;;;;;;;14.63;6.72;;;;;;;4.76;100.00;100024.91;5076787;28;20051;-88
2021/12/23 04:58:27;;;;;;;14.40;7.10;;;;;;;4.80;100.00;100033.47;5089064;28;20602;-89
2021/12/23 05:00:54;;;;;;;12.80;6.20;;;;;;;4.82;100.00;100040.34;5096781;28;20134;-88
2021/12/23 05:03:22;;;;;;;14.60;6.63;;;;;;;4.79;100.00;100026.59;5096603;28;20055;-89
2021/12/23 05:05:49;;;;;;;17.38;7.57;;;;;;;4.63;100.00;100010.56;5097005;28;20132;-89
2021/12/23 05:08:18;;;;;;;13.63;6.60;;;;;;;4.75;100.00;100026.66;5095893;28;20088;-88
2021/12/23 05:10:45;;;;;;;15.45;7.43;;;;;;;4.65;100.00;100027.75;5108613;27;20050;-89
2021/12/23 05:13:12;;;;;;;14.35;7.53;;;;;;;4.65;100.00;100026.91;5116647;27;20058;-89
2021/12/23 05:15:39;;;;;;;16.92;8.40;;;;;;;4.58;100.00;100031.41;5117076;27;20047;-89
2021/12/23 05:18:07;;;;;;;14.88;6.97;;;;;;;4.75;100.00;100031.00;5106431;28;20473;-89
2021/12/23 05:20:34;;;;;;;16.13;7.65;;;;;;;4.55;100.00;100021.97;5096526;28;20058;-89
2021/12/23 05:23:01;;;;;;;13.77;6.75;;;;;;;4.57;100.00;100019.34;5096516;28;20048;-89
2021/12/23 05:25:28;;;;;;;14.18;7.18;;;;;;;4.54;100.00;100016.81;5097336;28;20671;-89
2021/12/23 05:27:55;;;;;;;16.15;7.28;;;;;;;4.52;100.00;100003.88;5113750;28;20460;-88
2021/12/23 05:30:25;;;;;;;16.48;8.25;;;;;;;4.52;100.00;100011.66;5096194;28;20048;-89
2021/12/23 05:32:52;;;;;;;17.50;9.70;;;;;;;4.41;100.00;100023.16;5096597;28;20559;-89
2021/12/23 05:35:19;;;;;;;15.32;6.88;;;;;;;4.22;100.00;100027.94;5114053;28;20043;-89
2021/12/23 05:37:47;;;;;;;14.93;7.82;;;;;;;4.19;100.00;100003.78;5095395;28;20603;-89
2021/12/23 05:40:19;;;;;;;15.93;7.90;;;;;;;4.45;100.00;100030.84;5096750;28;20044;-89
2021/12/23 05:42:46;;;;;;;14.00;6.28;;;;;;;4.38;100.00;100006.81;5095545;28;20051;-89
2021/12/23 05:45:14;;;;;;;13.40;6.05;;;;;;;4.54;100.00;100012.47;5095902;28;20052;-89
2021/12/23 05:47:42;;;;;;;11.98;5.88;;;;;;;4.64;100.00;100007.06;5095772;28;20114;-89
2021/12/23 05:50:10;;;;;;;15.38;7.00;;;;;;;4.56;100.00;100002.91;5095899;28;20048;-89
2021/12/23 05:52:38;;;;;;;15.93;7.05;;;;;;;4.75;100.00;100016.28;5087014;28;20060;-89
2021/12/23 05:55:07;;;;;;;14.63;6.88;;;;;;;4.61;100.00;99996.78;5084104;28;20696;-89
2021/12/23 05:57:35;;;;;;;11.63;5.00;;;;;;;4.84;100.00;100024.72;5103370;28;20035;-89
2021/12/23 06:00:07;;;;;;;14.98;6.63;;;;;;;4.72;100.00;100010.31;5086435;28;20477;-89
2021/12/23 06:02:34;;;;;;;15.10;6.97;;;;;;;4.61;100.00;99971.69;5099595;27;20047;-89
2021/12/23 06:05:01;;;;;;;14.60;6.82;;;;;;;4.74;100.00;99991.22;5086543;28;20284;-89
2021/12/23 06:07:28;;;;;;;16.20;7.78;;;;;;;4.48;100.00;99991.03;5103281;28;20046;-89
2021/12/23 06:09:54;;;;;;;15.65;7.07;;;;;;;4.51;100.00;99991.81;5102266;27;20051;-89
2021/12/23 06:12:21;;;;;;;14.85;7.65;;;;;;;4.64;100.00;99994.97;5123308;27;20044;-88
2021/12/23 06:14:48;;;;;;;16.50;7.50;;;;;;;4.71;100.00;99998.22;5112016;28;20051;-88
2021/12/23 06:17:15;;;;;;;19.00;8.65;;;;;;;4.94;100.00;100003.69;5094048;28;20039;-88
2021/12/23 06:19:41;;;;;;;14.90;6.82;;;;;;;4.89;100.00;99996.94;5094864;28;20051;-88
2021/12/23 06:22:08;;;;;;;14.73;6.68;;;;;;;4.87;100.00;100002.16;5095496;28;20043;-88
2021/12/23 06:24:35;;;;;;;16.60;8.07;;;;;;;4.57;100.00;100008.97;5095066;28;20043;-88
2021/12/23 06:27:02;;;;;;;12.55;5.57;;;;;;;4.81;100.00;100001.47;5094738;28;20044;-88
2021/12/23 06:29:29;;;;;;;13.68;6.30;;;;;;;4.89;100.00;100013.34;5094754;28;20047;-88
2021/12/23 06:31:56;;;;;;;12.13;4.95;;;;;;;4.94;100.00;100002.84;5095101;28;20477;-88
2021/12/23 06:34:22;;;;;;;20.38;8.13;;;;;;;4.79;100.00;100027.44;5094356;28;20059;-87
2021/12/23 06:36:49;;;;;;;12.50;6.68;;;;;;;4.95;100.00;100017.50;5094338;28;20048;-88
2021/12/23 06:39:16;;;;;;;13.32;5.63;;;;;;;5.12;100.00;100015.34;5092334;28;20051;-88
2021/12/23 06:41:43;;;;;;;12.27;5.20;;;;;;;4.94;100.00;99995.91;5111383;28;20052;-88
2021/12/23 06:44:10;;;;;;;11.50;5.10;;;;;;;5.07;100.00;100003.38;5093850;28;20046;-88
2021/12/23 06:46:36;;;;;;;15.32;6.75;;;;;;;4.85;100.00;100019.50;5094224;28;20043;-88
2021/12/23 06:49:04;;;;;;;14.25;7.43;;;;;;;4.72;100.00;100013.75;5093059;28;20043;-89
2021/12/23 06:51:31;;;;;;;14.52;6.65;;;;;;;4.85;100.00;100003.94;5112319;28;20051;-88
2021/12/23 06:54:00;;;;;;;13.48;6.32;;;;;;;4.80;100.00;99985.06;5094745;28;20062;-88
2021/12/23 06:56:27;;;;;;;14.25;5.93;;;;;;;4.80;100.00;99981.59;5093501;28;20052;-88
2021/12/23 06:58:54;;;;;;;10.18;4.60;;;;;;;4.97;100.00;99987.19;5093000;28;20048;-88
2021/12/23 07:01:21;;;;;;;12.00;6.15;;;;;;;4.98;100.00;100008.81;5112359;28;20378;-88
2021/12/23 07:04:14;;;;;;;14.35;6.25;;;;;;;4.87;100.00;100020.31;5094082;28;20075;-88
2021/12/23 07:06:37;;;;;;;12.68;5.47;;;;;;;5.13;100.00;100021.38;5095180;28;20048;-88
2021/12/23 07:09:05;;;;;;;12.85;6.00;;;;;;;5.05;100.00;100015.53;5093401;28;20043;-88
2021/12/23 07:11:33;;;;;;;12.52;6.22;;;;;;;5.17;100.00;100023.00;5093617;28;20743;-89
2021/12/23 07:14:00;;;;;;;11.38;5.05;;;;;;;5.15;100.00;100024.75;5111803;28;20665;-88
2021/12/23 07:16:27;;;;;;;12.38;5.57;;;;;;;5.17;100.00;100027.31;5093928;28;20481;-88
2021/12/23 07:18:54;;;;;;;12.52;5.78;;;;;;;5.16;100.00;100028.22;5093642;28;20135;-88
2021/12/23 07:21:21;;;;;;;14.75;5.82;;;;;;;4.92;100.00;100002.03;5094654;28;20485;-89
2021/12/23 07:23:48;;;;;;;15.43;6.85;;;;;;;4.96;100.00;100006.25;5115575;27;20047;-89
2021/12/23 07:26:18;;;;;;;12.10;4.70;;;;;;;5.07;100.00;100008.56;5102368;28;20059;-89
2021/12/23 07:28:44;;;;;;;12.18;5.45;;;;;;;5.14;100.00;100004.91;5093457;28;20047;-89
2021/12/23 07:31:11;;;;;;;13.50;5.85;;;;;;;4.98;100.00;100004.47;5094504;28;20047;-88
2021/12/23 07:33:38;;;;;;;20.25;10.32;;;;;;;4.58;100.00;100015.84;5111682;28;20537;-88
2021/12/23 07:36:06;;;;;;;13.05;6.03;;;;;;;4.83;100.00;100012.63;5094549;28;20058;-88
2021/12/23 07:38:34;;;;;;;15.95;6.32;;;;;;;4.91;100.00;100003.78;5093248;28;20040;-89
2021/12/23 07:41:02;;;;;;;13.82;6.28;;;;;;;4.88;100.00;100010.78;5094100;28;20047;-88
2021/12/23 07:43:43;;;;;;;12.00;5.82;;;;;;;4.92;100.00;99996.84;5094071;28;20047;-88
2021/12/23 07:46:10;;;;;;;12.23;5.57;;;;;;;4.98;100.00;99998.44;5096379;28;20389;-88
2021/12/23 07:48:37;;;;;;;13.68;6.10;;;;;;;4.98;100.00;100001.03;5099034;28;20083;-89
2021/12/23 07:51:05;;;;;;;11.75;5.45;;;;;;;5.02;100.00;100003.50;5094428;28;20052;-89
2021/12/23 07:53:32;;;;;;;14.18;5.35;;;;;;;4.87;100.00;99989.19;5109637;28;20432;-90
2021/12/23 07:56:02;;;;;;;12.07;5.60;;;;;;;4.99;100.00;99987.16;5095408;28;20051;-89
2021/12/23 07:58:29;;;;;;;14.70;6.53;;;;;;;4.98;100.00;99994.09;5118513;27;20043;-89
2021/12/23 08:00:56;;;;;;;11.57;4.93;;;;;;;5.11;100.00;99982.47;5086563;28;20404;-91
2021/12/23 08:03:23;;;;;;;19.48;8.75;;;;;;;4.84;100.00;100012.59;5100531;27;20043;-91
2021/12/23 08:05:52;;;;;;;12.60;5.22;;;;;;;5.00;100.00;100009.63;5098411;28;20061;-91
2021/12/23 08:08:19;;;;;;;12.40;5.95;;;;;;;5.02;100.00;100011.28;5097479;28;20052;-91
2021/12/23 08:10:48;;;;;;;14.98;5.32;;;;;;;5.04;100.00;100001.69;5077388;27;20527;-90
2021/12/23 08:13:18;;;;;;;13.13;6.90;;;;;;;5.02;100.00;99997.47;5097103;28;20044;-91
2021/12/23 08:15:45;;;;;;;13.63;6.13;;;;;;;5.00;100.00;99994.91;5116328;28;20135;-90
2021/12/23 08:18:12;;;;;;;13.27;5.68;;;;;;;4.84;100.00;99978.03;5103297;28;20131;-90
2021/12/23 08:20:39;;;;;;;11.73;5.35;;;;;;;4.94;100.00;99971.72;5093519;28;20188;-90
2021/12/23 08:23:06;;;;;;;14.10;5.90;;;;;;;4.95;100.00;99971.66;5114856;28;20047;-90
2021/12/23 08:25:33;;;;;;;12.63;5.45;;;;;;;4.99;100.00;100000.97;5096956;28;20388;-90
2021/12/23 08:28:00;;;;;;;11.70;5.07;;;;;;;5.17;100.00;100003.97;5096479;28;20159;-88
2021/12/23 08:30:32;;;;;;;12.65;5.82;;;;;;;4.94;100.00;99967.38;5098240;28;20044;-91
2021/12/23 08:32:59;;;;;;;13.43;5.22;;;;;;;5.28;100.00;99989.81;5109269;28;20101;-91
2021/12/23 08:35:26;;;;;;;15.88;6.65;;;;;;;5.00;100.00;100000.09;5095406;28;20481;-90
2021/12/23 08:37:53;;;;;;;15.55;7.30;;;;;;;5.17;100.00;99988.41;5081855;28;20040;-90
2021/12/23 08:40:23;;;;;;;16.58;8.75;;;;;;;5.20;100.00;100004.72;5086477;28;20117;-91
2021/12/23 08:42:51;;;;;;;16.13;7.35;;;;;;;5.31;100.00;99983.66;5121258;27;20428;-90
2021/12/23 08:45:19;;;;;;;16.05;8.35;;;;;;;4.86;100.00;99981.44;5115223;28;20047;-91
2021/12/23 08:47:46;;;;;;;15.90;8.07;;;;;;;5.02;100.00;99998.28;5096941;28;20043;-90
2021/12/23 08:50:15;;;;;;;15.75;7.93;;;;;;;5.19;100.00;100004.78;5097639;28;20059;-90
2021/12/23 08:52:42;;;;;;;17.85;8.23;;;;;;;5.13;100.00;99995.41;5095571;28;20048;-90
2021/12/23 08:55:10;;;;;;;14.43;7.32;;;;;;;5.26;100.00;99982.97;5091947;28;20058;-91
2021/12/23 08:57:36;;;;;;;15.73;7.88;;;;;;;4.95;100.00;99976.00;5085642;28;20051;-90
2021/12/23 09:00:06;;;;;;;16.83;8.68;;;;;;;5.19;100.00;99996.97;5097275;28;20051;-90
2021/12/23 09:02:33;;;;;;;18.90;8.50;;;;;;;5.38;100.00;99994.75;5096592;28;20048;-90
2021/12/23 09:05:00;;;;;;;14.75;6.93;;;;;;;5.26;100.00;99993.34;5096826;28;20485;-90
2021/12/23 09:07:27;;;;;;;16.40;7.75;;;;;;;5.31;100.00;99997.53;5095129;28;20043;-89
2021/12/23 09:09:55;;;;;;;18.67;9.23;;;;;;;5.01;100.00;99978.44;5096557;28;20161;-90
2021/12/23 09:12:23;;;;;;;18.38;8.45;;;;;;;5.33;100.00;99989.69;5114731;28;20086;-89
2021/12/23 09:14:49;;;;;;;18.65;8.27;;;;;;;5.10;100.00;99985.13;5114622;28;20047;-89
2021/12/23 09:17:17;;;;;;;12.80;6.05;;;;;;;5.49;100.00;100003.94;5095730;28;20051;-89
2021/12/23 09:19:44;;;;;;;14.27;6.45;;;;;;;5.72;100.00;100005.03;5115074;28;20074;-90
2021/12/23 09:22:12;;;;;;;16.30;7.57;;;;;;;5.66;100.00;100007.78;5096754;28;20058;-90
2021/12/23 09:24:42;;;;;;;12.65;6.57;;;;;;;5.54;100.00;100016.78;5096359;28;20051;-89
2021/12/23 09:32:52;;;;;;;17.45;7.70;;;;;;;5.56;100.00;99989.03;5114947;28;20050;-89
2021/12/23 09:35:39;;;;;;;18.13;8.40;;;;;;;5.51;100.00;99989.16;5095983;28;20055;-88
2021/12/23 09:38:06;;;;;;;14.43;6.50;;;;;;;5.76;100.00;99990.22;5091730;28;20048;-92
2021/12/23 09:40:34;;;;;;;14.30;6.10;;;;;;;5.90;100.00;99998.44;5094659;28;20588;-88
2021/12/23 09:43:06;;;;;;;14.35;7.13;;;;;;;5.81;100.00;99990.94;5091643;28;20058;-91
2021/12/23 09:45:38;;;;;;;13.68;6.07;;;;;;;5.60;100.00;99977.66;5116917;27;20051;-90
2021/12/23 09:48:05;;;;;;;12.80;5.18;;;;;;;5.85;100.00;99985.56;5093540;28;20047;-90
2021/12/23 09:50:37;;;;;;;16.00;6.97;;;;;;;5.50;100.00;99947.66;5113543;28;20412;-90
2021/12/23 09:53:05;;;;;;;19.77;10.63;;;;;;;5.42;100.00;99980.78;5095757;28;20051;-90
2021/12/23 09:55:35;;;;;;;16.63;8.57;;;;;;;5.32;100.00;99970.66;5094828;28;20493;-90
2021/12/23 09:58:02;;;;;;;17.42;7.20;;;;;;;5.20;100.00;99964.97;5112126;28;20043;-90
2021/12/23 10:00:32;;;;;;;12.77;6.35;;;;;;;5.07;100.00;99974.84;5095597;28;20044;-90
2021/12/23 10:02:59;;;;;;;13.63;5.88;;;;;;;4.96;100.00;99964.75;5094943;28;20068;-89
2021/12/23 10:05:29;;;;;;;14.55;7.13;;;;;;;4.87;100.00;99931.25;5094728;28;20134;-89
2021/12/23 10:07:57;;;;;;;18.48;8.90;;;;;;;5.06;100.00;99919.47;5093086;28;20039;-90
2021/12/23 10:38:32;;;;;;;12.93;5.85;;;;;;;5.66;100.00;99971.44;5105155;28;20382;-90
2021/12/23 10:41:08;;;;;;;15.50;5.47;;;;;;;5.76;100.00;99977.22;5094450;28;20059;-90
2021/12/23 10:43:40;;;;;;;14.30;6.65;;;;;;;5.78;100.00;99994.44;5104461;28;20054;-90
2021/12/23 10:46:24;;;;;;;14.05;5.70;;;;;;;5.92;100.00;99983.66;5094111;28;20134;-90
2021/12/23 10:49:08;;;;;;;14.82;6.70;;;;;;;5.77;100.00;99974.59;5092974;28;20039;-90
2021/12/23 11:00:50;;;;;;;11.57;5.05;;;;;;;5.97;100.00;99978.34;5052176;28;20135;-89
2021/12/23 11:03:41;;;;;;;12.82;6.82;;;;;;;5.92;100.00;99978.44;5045150;28;20508;-88
2021/12/23 11:06:17;;;;;;;12.73;6.15;;;;;;;5.78;100.00;99978.84;5078348;27;20057;-87
2021/12/23 11:08:56;;;;;;;10.63;5.03;;;;;;;5.54;100.00;99974.38;5101612;28;20040;-87
2021/12/23 11:39:52;;;;;;;13.48;5.18;;;;;;;5.70;100.00;99983.41;5103157;28;20046;-87
2021/12/23 11:45:09;;;;;;;10.23;4.93;;;;;;;5.64;100.00;99974.06;5086044;28;20060;-87
2021/12/23 11:47:38;;;;;;;13.98;6.93;;;;;;;5.61;100.00;99978.50;5109955;28;20057;-88
2021/12/23 11:50:06;;;;;;;13.43;6.25;;;;;;;5.79;100.00;99969.31;5093128;28;20059;-88
2021/12/23 11:52:33;;;;;;;16.05;7.63;;;;;;;5.68;100.00;99970.50;5111350;28;20054;-92
2021/12/23 11:54:59;;;;;;;12.75;5.85;;;;;;;5.50;100.00;99939.88;5093338;28;20048;-91
2021/12/23 11:57:35;;;;;;;14.15;7.03;;;;;;;5.69;100.00;99967.00;5085604;28;20040;-89
2021/12/23 12:02:37;;;;;;;13.88;6.63;;;;;;;5.54;100.00;99918.09;5111787;28;20052;-90
2021/12/23 12:05:12;;;;;;;20.08;7.30;;;;;;;5.41;100.00;99932.34;5092213;28;20047;-90
2021/12/23 12:07:41;;;;;;;15.05;7.30;;;;;;;5.89;100.00;99968.13;5092558;28;20048;-89
2021/12/23 12:10:28;;;;;;;12.98;6.18;;;;;;;6.07;100.00;99969.34;5093648;28;20048;-90
2021/12/23 12:13:02;;;;;;;14.07;6.03;;;;;;;6.02;100.00;99969.50;5126361;28;20396;-89
2021/12/23 12:15:37;;;;;;;14.63;6.45;;;;;;;6.00;100.00;99970.44;5092957;28;20048;-89
2021/12/23 12:18:07;;;;;;;11.85;5.72;;;;;;;6.12;100.00;99954.47;5092385;28;20089;-90
2021/12/23 12:20:45;;;;;;;14.63;6.85;;;;;;;6.07;100.00;99953.75;5110997;28;20055;-90
2021/12/23 12:23:14;;;;;;;12.18;5.13;;;;;;;6.05;100.00;99947.75;5105193;28;20439;-90
2021/12/23 12:25:41;;;;;;;13.02;5.47;;;;;;;6.34;100.00;99962.44;5093176;28;20060;-90
2021/12/23 12:28:08;;;;;;;12.32;5.70;;;;;;;6.33;100.00;99962.47;5091783;28;20051;-89
2021/12/23 12:30:41;;;;;;;12.02;6.03;;;;;;;6.27;100.00;99960.94;5111796;28;20130;-89
2021/12/23 12:33:10;;;;;;;11.52;5.50;;;;;;;6.30;100.00;99959.97;5090501;28;20052;-90
2021/12/23 12:35:39;;;;;;;12.80;5.95;;;;;;;6.27;100.00;99953.97;5091420;28;20051;-89
2021/12/23 12:38:19;;;;;;;11.05;4.80;;;;;;;6.38;100.00;99938.03;5105574;28;20040;-90
2021/12/23 12:41:09;;;;;;;13.82;6.28;;;;;;;6.21;100.00;99938.56;5087845;28;20063;-89
2021/12/23 12:43:45;;;;;;;11.45;5.03;;;;;;;6.36;100.00;99941.59;5110239;27;20060;-89
2021/12/23 12:46:22;;;;;;;14.13;6.63;;;;;;;6.06;100.00;99939.06;5098403;28;20055;-89
2021/12/23 12:48:59;;;;;;;13.43;6.50;;;;;;;6.16;100.00;99945.69;5109890;28;20441;-89
2021/12/23 12:51:38;;;;;;;12.45;5.80;;;;;;;6.14;100.00;99931.03;5092459;28;20134;-88